Time;durP1;ratioP1;P1;durP2;ratioP2;P2;SDS_P1;SDS_P2;PMS_P1;PMS_P2;Temp;Humidity;BMP_temperature;BMP_pressure;BME280_temperature;BME280_humidity;BME280_pressure;Samples;Min_cycle;Max_cycle;Signal;HPM_P1;HPM_P2
2021/08/23 00:01:22;;;;;;;;;;;19.40;99.10;;;18.55;98.17;100787.34;5036536;28;19936;-69
2021/08/23 00:03:49;;;;;;;;;;;19.40;99.10;;;18.53;98.58;100780.38;5036584;28;20020;-69
2021/08/23 00:06:16;;;;;;;;;;;19.30;99.10;;;18.53;98.35;100786.72;5036636;28;19925;-69
2021/08/23 00:08:43;;;;;;;;;;;19.30;99.20;;;18.54;98.50;100782.91;5036936;28;20332;-69
2021/08/23 00:11:10;;;;;;;;;;;19.30;99.20;;;18.54;98.46;100782.06;5036767;28;20367;-69
2021/08/23 00:13:38;;;;;;;;;;;19.30;99.30;;;18.51;98.47;100777.84;5036764;28;19986;-69
2021/08/23 00:16:06;;;;;;;;;;;19.30;99.20;;;18.51;98.71;100788.03;5036853;28;19936;-69
2021/08/23 00:18:33;;;;;;;;;;;19.30;99.40;;;18.51;98.47;100788.03;5037253;28;19983;-69
2021/08/23 00:21:02;;;;;;;;;;;19.30;99.30;;;18.51;98.54;100791.63;5035731;28;20388;-69
2021/08/23 00:23:35;;;;;;;;;;;19.30;99.30;;;18.51;98.34;100788.88;5037600;28;19936;-68
2021/08/23 00:26:03;;;;;;;;;;;19.30;99.40;;;18.51;98.36;100790.81;5036135;28;19928;-69
2021/08/23 00:28:30;;;;;;;;;;;19.30;99.40;;;18.52;98.64;100784.19;5035901;28;19928;-69
2021/08/23 00:30:57;;;;;;;;;;;19.30;99.50;;;18.50;98.69;100787.19;5036247;28;20121;-69
2021/08/23 00:33:25;;;;;;;;;;;19.30;99.50;;;18.49;98.73;100780.00;5035904;28;19947;-69
2021/08/23 00:35:52;;;;;;;;;;;19.30;99.50;;;18.49;98.58;100787.44;5031438;28;20039;-69
2021/08/23 00:38:19;;;;;;;;;;;19.30;99.50;;;18.49;98.55;100781.94;5039900;28;19986;-68
2021/08/23 00:40:47;;;;;;;;;;;19.30;99.50;;;18.51;98.29;100790.81;5040779;28;19935;-69
2021/08/23 00:43:14;;;;;;;;;;;19.30;99.40;;;18.50;98.30;100789.09;5040059;28;19983;-69
2021/08/23 00:45:42;;;;;;;;;;;19.30;99.40;;;18.48;98.31;100794.00;5040105;28;20022;-69
2021/08/23 00:48:10;;;;;;;;;;;19.30;99.40;;;18.48;98.48;100794.84;5022452;28;20119;-69
2021/08/23 00:50:39;;;;;;;;;;;19.30;99.50;;;18.47;98.61;100790.41;5040465;28;20392;-69
2021/08/23 00:53:06;;;;;;;;;;;19.30;99.40;;;18.48;98.64;100797.59;5040274;28;20225;-69
2021/08/23 00:55:33;;;;;;;;;;;19.30;99.50;;;18.47;98.59;100797.84;5023606;28;19935;-69
2021/08/23 00:58:01;;;;;;;;;;;19.30;99.50;;;18.47;98.33;100793.19;5041456;28;19936;-69
2021/08/23 01:00:29;;;;;;;;;;;19.30;99.50;;;18.43;98.85;100796.59;5040120;28;19929;-69
2021/08/23 01:03:01;;;;;;;;;;;19.30;99.40;;;18.44;99.19;100798.31;5039716;28;19925;-69
2021/08/23 01:05:30;;;;;;;;;;;19.30;99.70;;;18.43;98.82;100788.34;5039324;28;19965;-69
2021/08/23 01:08:04;;;;;;;;;;;19.30;99.70;;;18.45;98.76;100798.06;5041307;28;20180;-69
2021/08/23 01:10:35;;;;;;;;;;;19.30;99.70;;;18.45;98.81;100794.47;5020469;28;20458;-69
2021/08/23 01:13:04;;;;;;;;;;;19.30;99.70;;;18.44;98.75;100799.13;5020428;28;20385;-69
2021/08/23 01:15:31;;;;;;;;;;;19.30;99.60;;;18.42;98.65;100800.44;5022326;28;20388;-69
2021/08/23 01:17:59;;;;;;;;;;;19.30;99.60;;;18.41;98.73;100804.25;5038601;28;19928;-71
2021/08/23 01:20:26;;;;;;;;;;;19.20;99.40;;;18.39;99.04;100806.41;5040475;28;19974;-69
2021/08/23 01:22:54;;;;;;;;;;;19.20;99.50;;;18.39;99.34;100812.78;5040581;28;19924;-69
2021/08/23 01:25:27;;;;;;;;;;;19.20;99.60;;;18.39;98.87;100810.03;5040656;28;19967;-69
2021/08/23 01:28:06;;;;;;;;;;;19.20;99.60;;;18.42;99.03;100812.31;5038236;28;19925;-69
2021/08/23 01:30:40;;;;;;;;;;;19.20;99.60;;;18.41;98.89;100815.28;5039320;28;20543;-69
2021/08/23 01:33:09;;;;;;;;;;;19.20;99.70;;;18.40;98.88;100819.13;5041579;28;19944;-69
2021/08/23 01:35:36;;;;;;;;;;;19.20;99.70;;;18.39;98.94;100811.91;5021216;28;20367;-69
2021/08/23 01:38:04;;;;;;;;;;;19.20;99.70;;;18.42;98.70;100808.72;5038474;28;20396;-69
2021/08/23 01:40:31;;;;;;;;;;;19.10;99.60;;;18.41;98.62;100820.78;5038663;28;20579;-69
2021/08/23 01:42:58;;;;;;;;;;;19.10;99.70;;;18.39;98.23;100822.94;5038763;28;20369;-69
2021/08/23 01:45:25;;;;;;;;;;;19.10;99.60;;;18.36;98.21;100822.31;5037408;28;20030;-69
2021/08/23 01:47:53;;;;;;;;;;;19.00;99.50;;;18.33;97.82;100820.06;5038278;28;19976;-69
2021/08/23 01:50:22;;;;;;;;;;;19.00;99.50;;;18.32;97.81;100823.88;5037834;28;19941;-69
2021/08/23 01:52:49;;;;;;;;;;;18.90;99.50;;;18.30;97.62;100826.00;5037829;28;19929;-69
2021/08/23 01:55:17;;;;;;;;;;;18.90;99.50;;;18.28;97.24;100832.81;5037795;28;19956;-69
2021/08/23 01:57:44;;;;;;;;;;;18.90;99.50;;;18.27;97.27;100837.47;5038001;28;19979;-68
2021/08/23 02:00:12;;;;;;;;;;;18.90;99.50;;;18.27;97.04;100847.66;5038339;28;19929;-69
2021/08/23 02:02:41;;;;;;;;;;;18.90;99.50;;;18.27;97.15;100842.16;5038038;28;19929;-69
2021/08/23 02:05:09;;;;;;;;;;;18.90;99.50;;;18.22;97.45;100845.59;5037954;28;19939;-69
2021/08/23 02:07:37;;;;;;;;;;;18.90;99.50;;;18.21;97.58;100846.66;5037674;28;19974;-69
2021/08/23 02:10:06;;;;;;;;;;;18.90;99.60;;;18.21;97.72;100843.06;5037521;28;19975;-69
2021/08/23 02:12:33;;;;;;;;;;;18.90;99.70;;;18.21;98.02;100846.66;5037661;28;19929;-69
2021/08/23 02:15:00;;;;;;;;;;;18.90;99.80;;;18.20;98.01;100850.50;5019881;28;20396;-69
2021/08/23 02:17:27;;;;;;;;;;;18.90;99.90;;;18.21;98.07;100854.09;5036974;28;20018;-69
2021/08/23 02:19:54;;;;;;;;;;;18.90;99.90;;;18.23;97.98;100855.53;5037234;28;19956;-69
2021/08/23 02:22:21;;;;;;;;;;;18.90;99.90;;;18.24;98.08;100860.00;5036840;28;19937;-69
2021/08/23 02:24:50;;;;;;;;;;;18.90;99.90;;;18.23;98.27;100857.44;5036678;28;19979;-69
2021/08/23 02:27:17;;;;;;;;;;;18.90;99.90;;;18.23;98.38;100863.78;5036944;28;20023;-68
2021/08/23 02:29:44;;;;;;;;;;;18.90;99.90;;;18.23;98.21;100868.47;5036996;28;19990;-69
2021/08/23 02:32:11;;;;;;;;;;;18.90;99.90;;;18.21;98.52;100871.44;5036590;28;19932;-69
2021/08/23 02:34:38;;;;;;;;;;;18.90;99.90;;;18.23;98.53;100879.50;5036614;28;20460;-69
2021/08/23 02:37:05;;;;;;;;;;;19.00;99.90;;;18.25;98.45;100878.19;5036846;28;19955;-69
2021/08/23 02:39:32;;;;;;;;;;;19.00;99.90;;;18.25;98.47;100878.19;5036781;28;19925;-69
2021/08/23 02:42:03;;;;;;;;;;;19.00;99.90;;;18.22;98.47;100883.31;5018894;28;19924;-69
2021/08/23 02:44:31;;;;;;;;;;;19.00;99.90;;;18.21;98.75;100887.97;5036151;28;20390;-69
2021/08/23 02:46:58;;;;;;;;;;;18.90;99.90;;;18.22;98.94;100895.19;4985541;28;19924;-69
2021/08/23 02:49:26;;;;;;;;;;;19.00;99.90;;;18.25;98.96;100893.88;5037729;28;19933;-69
2021/08/23 02:51:54;;;;;;;;;;;19.00;99.90;;;18.26;98.82;100890.03;5036090;28;21910;-69
2021/08/23 02:54:22;;;;;;;;;;;19.00;99.90;;;18.26;98.96;100893.66;5035982;28;19929;-69
2021/08/23 02:56:49;;;;;;;;;;;19.00;99.90;;;18.25;99.10;100899.41;5035891;28;20018;-69
2021/08/23 02:59:18;;;;;;;;;;;19.00;99.90;;;18.23;99.14;100891.34;5036074;28;19937;-69
2021/08/23 03:01:45;;;;;;;;;;;19.00;99.90;;;18.23;99.33;100896.84;5036160;28;19963;-69
2021/08/23 03:04:12;;;;;;;;;;;19.00;99.90;;;18.23;99.37;100898.78;5036091;28;19933;-69
2021/08/23 03:06:39;;;;;;;;;;;19.00;99.90;;;18.22;99.40;100895.19;5035827;28;20017;-69
2021/08/23 03:09:06;;;;;;;;;;;19.00;99.90;;;18.23;99.35;100894.09;5018155;28;20028;-69
2021/08/23 03:11:34;;;;;;;;;;;19.00;99.90;;;18.22;99.38;100892.44;5036193;28;19929;-69
2021/08/23 03:14:01;;;;;;;;;;;19.00;99.90;;;18.21;99.37;100893.50;5035939;28;20027;-69
2021/08/23 03:16:30;;;;;;;;;;;19.00;99.90;;;18.21;99.46;100896.25;5036080;28;19924;-69
2021/08/23 03:18:57;;;;;;;;;;;19.00;99.90;;;18.21;99.55;100887.16;5036070;28;20522;-69
2021/08/23 03:21:25;;;;;;;;;;;19.00;99.90;;;18.20;99.42;100897.34;5036007;28;20008;-69
2021/08/23 03:23:52;;;;;;;;;;;18.90;99.90;;;18.20;99.32;100904.72;5018071;28;20023;-69
2021/08/23 03:26:19;;;;;;;;;;;18.90;99.90;;;18.16;99.35;100907.94;5035447;28;19929;-69
2021/08/23 03:28:47;;;;;;;;;;;18.90;99.90;;;18.17;99.03;100912.38;5035959;28;20467;-69
2021/08/23 03:31:14;;;;;;;;;;;18.90;99.90;;;18.18;98.96;100904.94;5018367;28;20797;-69
2021/08/23 03:33:42;;;;;;;;;;;18.90;99.90;;;18.14;99.02;100909.22;5035272;28;20017;-69
2021/08/23 03:36:09;;;;;;;;;;;18.80;99.90;;;18.15;98.85;100916.44;5035385;28;19968;-69
2021/08/23 03:38:37;;;;;;;;;;;18.80;99.90;;;18.15;98.93;100910.94;5035780;28;19929;-69
2021/08/23 03:41:04;;;;;;;;;;;18.90;99.90;;;18.15;98.94;100911.75;5035803;28;20042;-69
2021/08/23 03:43:31;;;;;;;;;;;18.90;99.90;;;18.12;99.22;100914.13;5035887;28;19942;-69
2021/08/23 03:45:58;;;;;;;;;;;18.90;99.90;;;18.11;99.52;100906.94;5035589;28;20004;-69
2021/08/23 03:48:26;;;;;;;;;;;18.80;99.90;;;18.11;99.56;100902.25;5036323;28;19965;-69
2021/08/23 03:50:54;;;;;;;;;;;18.90;99.90;;;18.12;99.69;100905.84;5036558;28;19952;-70
2021/08/23 03:53:21;;;;;;;;;;;18.80;99.90;;;18.11;99.41;100909.69;5036134;28;20030;-70
2021/08/23 03:55:49;;;;;;;;;;;18.90;99.90;;;18.09;99.76;100907.16;5036175;28;19987;-70
2021/08/23 03:58:16;;;;;;;;;;;18.90;99.90;;;18.11;100.00;100913.28;5036049;28;19928;-69
2021/08/23 04:00:43;;;;;;;;;;;18.90;99.90;;;18.10;99.82;100910.75;5036426;28;20020;-70
2021/08/23 04:03:10;;;;;;;;;;;18.90;99.90;;;18.10;99.85;100916.25;5036617;28;20248;-70
2021/08/23 04:05:37;;;;;;;;;;;18.90;99.90;;;18.11;99.83;100917.97;5036270;28;20023;-70
2021/08/23 04:08:06;;;;;;;;;;;18.90;99.90;;;18.09;99.79;100923.69;5036698;28;19929;-70
2021/08/23 04:10:33;;;;;;;;;;;18.90;99.90;;;18.10;99.76;100924.53;5036773;28;19929;-70
2021/08/23 04:13:00;;;;;;;;;;;18.90;99.90;;;18.11;100.00;100927.06;5036377;28;20523;-70
2021/08/23 04:15:27;;;;;;;;;;;18.90;99.90;;;18.08;100.00;100929.41;5036344;28;20046;-69
2021/08/23 04:17:54;;;;;;;;;;;18.90;99.90;;;18.03;100.00;100929.22;5039450;28;19976;-70
2021/08/23 04:20:21;;;;;;;;;;;18.90;99.90;;;18.04;100.00;100930.94;5040332;28;19986;-70
2021/08/23 04:22:48;;;;;;;;;;;18.90;99.90;;;18.04;100.00;100937.28;5040662;28;19971;-70
2021/08/23 04:25:17;;;;;;;;;;;18.90;99.90;;;18.06;100.00;100940.66;5040395;28;19929;-67
2021/08/23 04:27:44;;;;;;;;;;;18.90;99.90;;;18.06;100.00;100945.31;5039319;28;19967;-67
2021/08/23 04:30:12;;;;;;;;;;;18.90;99.90;;;18.06;100.00;100946.16;5040125;28;19929;-67
2021/08/23 04:32:39;;;;;;;;;;;19.00;99.90;;;18.07;100.00;100952.53;5040190;28;19933;-67
2021/08/23 04:35:07;;;;;;;;;;;18.90;99.90;;;18.06;100.00;100950.84;5042673;28;19929;-67
2021/08/23 04:37:35;;;;;;;;;;;19.00;99.90;;;18.09;100.00;100955.91;5038734;28;19928;-68
2021/08/23 04:40:02;;;;;;;;;;;19.00;99.90;;;18.08;100.00;100955.03;5045290;28;19960;-67
2021/08/23 04:42:30;;;;;;;;;;;19.00;99.90;;;18.10;100.00;100952.91;5039934;28;19925;-67
2021/08/23 04:44:58;;;;;;;;;;;19.00;99.90;;;18.10;100.00;100958.41;5036550;28;19936;-67
2021/08/23 04:47:25;;;;;;;;;;;19.00;99.90;;;18.10;100.00;100963.09;5040646;28;20074;-67
2021/08/23 04:49:52;;;;;;;;;;;19.00;99.90;;;18.10;100.00;100969.44;5040059;28;19951;-67
2021/08/23 04:52:19;;;;;;;;;;;19.00;99.90;;;18.12;100.00;100977.47;5041543;28;20082;-67
2021/08/23 04:54:46;;;;;;;;;;;19.00;99.90;;;18.13;100.00;100973.66;5039332;28;19929;-67
2021/08/23 04:57:16;;;;;;;;;;;19.00;99.90;;;18.11;100.00;100973.88;5039189;28;19935;-66
2021/08/23 04:59:44;;;;;;;;;;;19.00;99.90;;;18.10;100.00;100985.13;5037724;28;20388;-67
2021/08/23 05:02:11;;;;;;;;;;;19.00;99.90;;;18.10;100.00;100985.13;5036994;28;19976;-66
2021/08/23 05:04:38;;;;;;;;;;;19.00;99.90;;;18.12;100.00;100980.22;5038963;28;20014;-66
2021/08/23 05:07:05;;;;;;;;;;;19.00;99.90;;;18.13;100.00;100984.69;5039033;28;19979;-67
2021/08/23 05:09:32;;;;;;;;;;;19.00;99.90;;;18.12;100.00;100981.06;5039215;28;19941;-67
2021/08/23 05:12:00;;;;;;;;;;;19.00;99.90;;;18.13;100.00;100979.19;5021490;28;19925;-66
2021/08/23 05:14:27;;;;;;;;;;;19.00;99.90;;;18.13;100.00;100979.19;5039001;28;20475;-67
2021/08/23 05:16:55;;;;;;;;;;;19.10;99.90;;;18.14;100.00;100980.84;5039603;28;19925;-66
2021/08/23 05:19:22;;;;;;;;;;;19.00;99.90;;;18.14;100.00;100981.72;5039297;28;20036;-67
2021/08/23 05:21:49;;;;;;;;;;;19.00;99.90;;;18.15;100.00;100988.06;5037314;28;19955;-67
2021/08/23 05:24:17;;;;;;;;;;;19.00;99.90;;;18.16;100.00;100989.72;5038902;28;20766;-67
2021/08/23 05:26:44;;;;;;;;;;;19.10;99.90;;;18.16;100.00;100995.25;5021055;28;20020;-67
2021/08/23 05:29:11;;;;;;;;;;;19.10;99.90;;;18.17;100.00;100994.19;5039347;28;19929;-67
2021/08/23 05:31:38;;;;;;;;;;;19.10;99.90;;;18.18;100.00;100993.09;5038989;28;19967;-66
2021/08/23 05:34:06;;;;;;;;;;;19.10;99.90;;;18.18;100.00;100998.63;5020698;28;19936;-67
2021/08/23 05:36:33;;;;;;;;;;;19.10;99.90;;;18.19;99.93;100992.06;5038442;28;19986;-67
2021/08/23 05:39:00;;;;;;;;;;;19.10;99.70;;;18.20;99.91;100990.13;5038802;28;19968;-67
2021/08/23 05:41:28;;;;;;;;;;;19.10;99.90;;;18.20;99.82;100991.00;5039040;28;19929;-67
2021/08/23 05:43:55;;;;;;;;;;;19.10;99.90;;;18.22;100.00;100994.38;5020869;28;20398;-67
2021/08/23 05:46:22;;;;;;;;;;;19.10;99.90;;;18.21;99.83;100998.19;5038809;28;19929;-67
2021/08/23 05:48:50;;;;;;;;;;;19.10;99.70;;;18.21;100.00;100998.19;5038798;28;19933;-66
2021/08/23 05:51:19;;;;;;;;;;;19.20;99.70;;;18.20;100.00;101004.78;5038244;28;19933;-67
2021/08/23 05:53:47;;;;;;;;;;;19.20;99.50;;;18.23;99.78;101009.81;5038245;28;19936;-67
2021/08/23 05:56:14;;;;;;;;;;;19.20;99.30;;;18.20;99.74;101013.03;5037977;28;19944;-67
2021/08/23 05:58:41;;;;;;;;;;;19.30;99.10;;;18.13;99.78;101012.22;5041774;22;20024;-68
2021/08/23 06:01:08;;;;;;;;;;;19.30;98.90;;;18.13;100.00;101013.06;5018582;28;20035;-68
2021/08/23 06:03:35;;;;;;;;;;;19.20;98.90;;;18.14;100.00;101019.41;5018007;28;19972;-69
2021/08/23 06:06:05;;;;;;;;;;;19.30;99.10;;;18.14;100.00;101019.41;5018196;28;19970;-68
2021/08/23 06:08:35;;;;;;;;;;;19.30;99.20;;;18.17;100.00;101021.75;5018635;28;19929;-68
2021/08/23 06:11:03;;;;;;;;;;;19.30;99.10;;;18.23;100.00;101028.28;5018935;28;20310;-68
2021/08/23 06:13:30;;;;;;;;;;;19.30;98.80;;;18.24;100.00;101030.81;5018685;28;19940;-68
2021/08/23 06:15:59;;;;;;;;;;;19.30;98.80;;;18.24;99.62;101025.28;5017918;28;19929;-68
2021/08/23 06:18:26;;;;;;;;;;;19.30;98.60;;;18.27;99.48;101041.38;5019090;28;20415;-68
2021/08/23 06:20:54;;;;;;;;;;;19.30;98.60;;;18.25;99.46;101035.22;5018340;28;19935;-68
2021/08/23 06:23:21;;;;;;;;;;;19.30;98.50;;;18.26;99.06;101031.44;5018693;28;19940;-68
2021/08/23 06:25:49;;;;;;;;;;;19.30;98.40;;;18.24;99.63;101036.31;5017837;28;19928;-69
2021/08/23 06:28:19;;;;;;;;;;;19.30;98.80;;;18.20;99.50;101031.47;5000440;28;19965;-69
2021/08/23 06:30:46;;;;;;;;;;;19.30;98.80;;;18.21;99.32;101039.50;5018110;28;19929;-68
2021/08/23 06:33:13;;;;;;;;;;;19.20;98.50;;;18.23;99.09;101045.63;5018289;28;20034;-68
2021/08/23 06:35:40;;;;;;;;;;;19.30;98.50;;;18.22;99.20;101043.09;5017148;28;19932;-68
2021/08/23 06:38:08;;;;;;;;;;;19.30;98.40;;;18.25;99.00;101048.19;5018571;28;19929;-68
2021/08/23 06:40:35;;;;;;;;;;;19.30;98.20;;;18.24;98.58;101040.97;5015942;28;19925;-68
2021/08/23 06:43:04;;;;;;;;;;;19.30;97.70;;;18.24;98.37;101046.47;5016372;28;19929;-68
2021/08/23 06:45:31;;;;;;;;;;;19.20;98.10;;;18.22;98.63;101057.75;5018002;28;19972;-68
2021/08/23 06:47:58;;;;;;;;;;;19.20;98.40;;;18.22;98.43;101054.97;5017038;28;20374;-68
2021/08/23 06:50:26;;;;;;;;;;;19.20;98.20;;;18.23;98.41;101053.06;5017755;28;19929;-67
2021/08/23 06:52:53;;;;;;;;;;;19.20;98.40;;;18.19;98.49;101051.81;5018556;28;20023;-68
2021/08/23 06:55:20;;;;;;;;;;;19.10;98.70;;;18.21;98.59;101055.19;5019673;28;20367;-68
2021/08/23 06:57:47;;;;;;;;;;;19.10;98.70;;;18.19;98.80;101049.91;5018377;28;19929;-68
2021/08/23 07:00:16;;;;;;;;;;;19.20;98.70;;;18.22;98.74;101054.97;5017904;28;19929;-68
2021/08/23 07:02:43;;;;;;;;;;;19.20;98.60;;;18.19;99.01;101054.59;5018125;28;19929;-68
2021/08/23 07:05:12;;;;;;;;;;;19.20;98.70;;;18.19;99.05;101060.94;5017323;28;19940;-68
2021/08/23 07:07:39;;;;;;;;;;;19.20;98.80;;;18.23;99.08;101072.34;5017527;28;20577;-69
2021/08/23 07:10:08;;;;;;;;;;;19.20;99.10;;;18.21;99.35;101069.81;5017512;28;20016;-68
2021/08/23 07:12:36;;;;;;;;;;;19.10;99.30;;;18.18;99.21;101075.75;5017558;28;19929;-68
2021/08/23 07:15:03;;;;;;;;;;;19.10;99.60;;;18.19;99.36;101080.22;5015875;28;19936;-67
2021/08/23 07:17:32;;;;;;;;;;;19.00;99.50;;;18.18;99.89;101073.00;5021668;28;19968;-68
2021/08/23 07:19:59;;;;;;;;;;;19.10;99.60;;;18.19;99.55;101079.38;5017230;28;20011;-68
2021/08/23 07:22:27;;;;;;;;;;;19.20;99.20;;;18.22;99.71;101078.91;5013812;28;19926;-67
2021/08/23 07:24:54;;;;;;;;;;;19.20;99.10;;;18.23;99.53;101078.69;5014867;28;19929;-67
2021/08/23 07:27:21;;;;;;;;;;;19.20;99.00;;;18.21;99.18;101075.31;5017176;28;19929;-68
2021/08/23 07:29:48;;;;;;;;;;;19.20;98.80;;;18.21;99.49;101077.25;5017535;28;19992;-68
2021/08/23 07:32:15;;;;;;;;;;;19.20;98.80;;;18.16;100.00;101083.41;5017097;28;19939;-67
2021/08/23 07:34:43;;;;;;;;;;;19.20;98.90;;;18.16;100.00;101083.41;4998740;28;19976;-68
2021/08/23 07:37:13;;;;;;;;;;;19.30;99.00;;;18.20;99.83;101083.81;5016365;28;19980;-67
2021/08/23 07:39:41;;;;;;;;;;;19.30;98.80;;;18.21;99.50;101086.34;4999003;28;19952;-67
2021/08/23 07:42:08;;;;;;;;;;;19.30;98.40;;;18.17;99.36;101085.09;5016578;28;20408;-68
2021/08/23 07:44:35;;;;;;;;;;;19.30;98.20;;;18.22;99.09;101089.94;5016488;28;19960;-68
2021/08/23 07:47:03;;;;;;;;;;;19.30;97.80;;;18.23;98.70;101095.22;5015877;28;19930;-68
2021/08/23 07:49:30;;;;;;;;;;;19.30;97.70;;;18.23;98.77;101095.22;5016259;28;19928;-68
2021/08/23 07:51:58;;;;;;;;;;;19.30;98.00;;;18.24;98.50;101091.44;5018788;28;19934;-68
2021/08/23 07:54:25;;;;;;;;;;;19.30;97.90;;;18.24;98.57;101096.94;5021477;28;19933;-68
2021/08/23 07:56:52;;;;;;;;;;;19.30;98.00;;;18.23;98.50;101089.72;5019588;28;20011;-68
2021/08/23 07:59:20;;;;;;;;;;;19.30;97.90;;;18.18;98.08;101106.06;5017335;28;20666;-68
2021/08/23 08:01:47;;;;;;;;;;;19.30;97.10;;;18.18;98.00;101103.31;5020242;28;19968;-68
2021/08/23 08:04:14;;;;;;;;;;;19.20;97.50;;;18.19;97.78;101098.66;5024300;28;19933;-68
2021/08/23 08:06:44;;;;;;;;;;;19.20;97.30;;;18.19;97.06;101104.16;5022709;28;19960;-68
2021/08/23 08:09:12;;;;;;;;;;;19.20;96.70;;;18.19;97.24;101104.16;5016299;28;20012;-67
2021/08/23 08:11:40;;;;;;;;;;;19.20;97.20;;;18.17;97.44;101112.66;5014880;28;20519;-68
2021/08/23 08:14:07;;;;;;;;;;;19.20;96.90;;;18.21;97.18;101119.41;5021903;28;20526;-68
2021/08/23 08:16:34;;;;;;;;;;;19.20;97.00;;;18.17;97.10;101123.66;5020155;28;19975;-68
2021/08/23 08:19:02;;;;;;;;;;;19.30;97.10;;;18.21;96.86;101118.56;5020088;28;19925;-68
2021/08/23 08:21:29;;;;;;;;;;;19.30;96.80;;;18.22;97.30;101125.75;5019762;28;19929;-68
2021/08/23 08:23:56;;;;;;;;;;;19.40;96.70;;;18.22;96.78;101128.50;5020490;28;19955;-68
2021/08/23 08:26:25;;;;;;;;;;;19.40;96.50;;;18.24;96.26;101132.75;5019454;28;19983;-68
2021/08/23 08:28:52;;;;;;;;;;;19.40;95.70;;;18.26;95.96;101130.63;5019695;28;20035;-69
2021/08/23 08:31:19;;;;;;;;;;;19.40;95.60;;;18.30;96.09;101139.28;5019876;28;19975;-68
2021/08/23 08:33:46;;;;;;;;;;;19.50;95.60;;;18.31;95.51;101141.81;5020594;28;19929;-68
2021/08/23 08:36:15;;;;;;;;;;;19.60;94.10;;;18.33;95.23;101155.38;5019141;28;19929;-68
2021/08/23 08:38:42;;;;;;;;;;;19.70;94.10;;;18.34;94.57;101152.41;5002424;28;19933;-68
2021/08/23 08:41:10;;;;;;;;;;;19.70;92.90;;;18.33;93.76;101149.84;5019640;28;19929;-69
2021/08/23 08:43:38;;;;;;;;;;;19.60;93.70;;;18.35;94.30;101150.47;5021511;28;19932;-68
2021/08/23 08:46:06;;;;;;;;;;;19.50;93.50;;;18.33;94.12;101156.22;5019241;28;20053;-69
2021/08/23 08:48:34;;;;;;;;;;;19.50;94.20;;;18.36;94.53;101164.03;5018870;28;19928;-69
2021/08/23 08:51:03;;;;;;;;;;;19.60;94.00;;;18.42;94.18;101164.22;5021338;28;19929;-69
2021/08/23 08:53:30;;;;;;;;;;;19.80;92.90;;;18.46;93.33;101165.47;5021309;28;19929;-68
2021/08/23 08:55:57;;;;;;;;;;;20.00;91.10;;;18.47;92.72;101165.25;5022490;28;19975;-68
2021/08/23 08:58:25;;;;;;;;;;;20.00;91.20;;;18.50;92.15;101172.22;5018088;28;19972;-69
2021/08/23 09:00:54;;;;;;;;;;;20.00;91.40;;;18.50;91.83;101163.97;5021731;28;20388;-68
2021/08/23 09:03:27;;;;;;;;;;;20.00;90.80;;;18.54;91.90;101176.22;5020263;28;19957;-68
2021/08/23 09:06:01;;;;;;;;;;;20.10;90.60;;;18.57;91.96;101173.03;5020153;28;19929;-69
2021/08/23 09:08:31;;;;;;;;;;;20.20;90.50;;;18.59;91.16;101179.19;5018024;28;19929;-68
2021/08/23 09:11:09;;;;;;;;;;;20.20;89.60;;;18.61;89.75;101176.22;5020773;28;20007;-68
2021/08/23 09:13:37;;;;;;;;;;;20.20;89.20;;;18.62;89.85;101170.47;5020247;28;19930;-68
2021/08/23 09:16:06;;;;;;;;;;;20.30;88.70;;;18.63;89.58;101171.31;4999741;28;19987;-68
2021/08/23 09:18:33;;;;;;;;;;;20.30;88.40;;;18.67;89.10;101178.91;5001191;28;19936;-69
2021/08/23 09:21:02;;;;;;;;;;;20.30;87.80;;;18.69;89.60;101185.03;5016658;28;19933;-68
2021/08/23 09:23:36;;;;;;;;;;;20.30;88.80;;;18.71;89.18;101191.19;5021002;28;20007;-68
2021/08/23 09:26:11;;;;;;;;;;;20.30;88.30;;;18.72;88.79;101189.28;5015137;28;19929;-68
2021/08/23 09:28:39;;;;;;;;;;;20.30;87.90;;;18.73;88.03;101188.19;5019167;28;19929;-68
2021/08/23 09:31:10;;;;;;;;;;;20.40;87.60;;;18.75;88.84;101184.19;5018235;28;19936;-68
2021/08/23 09:33:46;;;;;;;;;;;20.40;87.80;;;18.79;88.18;101200.25;5017661;28;20043;-68
2021/08/23 09:36:18;;;;;;;;;;;20.50;87.10;;;18.75;86.70;101188.81;5018793;28;20032;-69
2021/08/23 09:38:57;;;;;;;;;;;20.40;86.40;;;18.79;86.35;101194.75;5018891;28;19933;-69
2021/08/23 09:41:24;;;;;;;;;;;20.60;85.80;;;18.83;87.41;101201.53;5019050;28;20026;-68
2021/08/23 09:43:59;;;;;;;;;;;20.70;86.80;;;18.90;87.86;101199.56;5019401;28;19933;-68
2021/08/23 09:46:28;;;;;;;;;;;20.80;86.20;;;18.92;87.61;101202.97;5019159;28;19968;-69
2021/08/23 09:48:57;;;;;;;;;;;20.90;86.00;;;18.96;87.53;101198.69;5001029;28;19964;-68
2021/08/23 09:51:27;;;;;;;;;;;20.90;85.70;;;18.99;87.60;101201.00;5014429;28;21373;-69
2021/08/23 09:54:05;;;;;;;;;;;21.00;84.80;;;19.02;86.54;101207.97;5018744;28;19928;-68
2021/08/23 09:56:33;;;;;;;;;;;21.00;84.40;;;19.02;86.55;101203.31;5018745;28;20019;-68
2021/08/23 09:59:01;;;;;;;;;;;20.90;85.20;;;19.05;86.29;101207.53;5018800;28;19952;-68
2021/08/23 10:01:31;;;;;;;;;;;20.80;85.10;;;19.05;86.47;101202.03;5016189;28;20042;-68
2021/08/23 10:04:01;;;;;;;;;;;20.80;85.60;;;19.06;86.16;101217.53;5016283;28;19995;-68
2021/08/23 10:06:29;;;;;;;;;;;20.80;85.40;;;19.03;85.47;101217.94;5017923;28;19930;-68
2021/08/23 10:08:56;;;;;;;;;;;20.80;85.00;;;19.04;86.10;101209.47;5018394;28;19929;-69
2021/08/23 10:11:24;;;;;;;;;;;20.80;85.80;;;19.05;86.56;101208.38;5018421;28;19933;-68
2021/08/23 10:13:51;;;;;;;;;;;20.80;86.40;;;19.05;86.40;101219.41;5018192;28;19925;-68
2021/08/23 10:16:18;;;;;;;;;;;20.80;85.90;;;19.04;86.50;101223.25;5017067;28;19929;-68
2021/08/23 10:18:47;;;;;;;;;;;20.70;86.80;;;19.04;85.51;101230.66;5015571;28;20018;-68
2021/08/23 10:21:14;;;;;;;;;;;20.70;85.50;;;19.04;86.38;101216.88;5018438;28;20013;-68
2021/08/23 10:23:43;;;;;;;;;;;20.70;86.60;;;19.06;86.24;101221.13;5018039;28;19933;-69
2021/08/23 10:26:10;;;;;;;;;;;20.80;86.10;;;19.09;85.91;101228.09;5015320;28;19964;-68
2021/08/23 10:28:38;;;;;;;;;;;20.90;85.10;;;19.12;86.45;101222.13;5015072;28;20024;-68
2021/08/23 10:31:07;;;;;;;;;;;20.90;85.80;;;19.13;86.18;101230.19;5018389;28;19995;-68
2021/08/23 10:33:37;;;;;;;;;;;21.00;85.20;;;19.17;86.04;101229.72;5018580;28;20617;-68
2021/08/23 10:36:07;;;;;;;;;;;21.10;85.20;;;19.18;85.42;101232.28;5016695;28;19929;-68
2021/08/23 10:38:35;;;;;;;;;;;21.10;84.40;;;19.22;85.64;101229.91;5017444;28;19929;-68
2021/08/23 10:41:10;;;;;;;;;;;21.10;84.70;;;19.24;85.54;101238.81;5013420;28;20019;-69
2021/08/23 10:43:47;;;;;;;;;;;21.10;84.50;;;19.24;84.16;101236.03;5017428;28;19929;-69
2021/08/23 10:46:26;;;;;;;;;;;21.20;83.20;;;19.25;85.77;101229.47;5017550;28;19933;-68
2021/08/23 10:48:55;;;;;;;;;;;21.20;84.90;;;19.25;85.16;101229.47;5001609;28;20000;-68
2021/08/23 10:51:32;;;;;;;;;;;21.20;84.20;;;19.28;85.20;101234.53;5018623;28;20036;-68
2021/08/23 10:53:59;;;;;;;;;;;21.20;84.30;;;19.30;85.24;101233.22;5018888;28;19929;-68
2021/08/23 10:56:36;;;;;;;;;;;21.30;84.10;;;19.33;85.48;101224.50;5017824;28;20028;-68
2021/08/23 10:59:13;;;;;;;;;;;21.40;83.90;;;19.39;86.10;101222.75;5018383;28;20421;-68
2021/08/23 11:01:41;;;;;;;;;;;21.50;84.30;;;19.45;86.58;101223.75;5017652;28;20027;-68
2021/08/23 11:04:09;;;;;;;;;;;21.70;84.40;;;19.48;85.81;101224.16;5018069;28;19937;-68
2021/08/23 11:06:37;;;;;;;;;;;21.80;83.50;;;19.53;85.99;101231.75;5018005;28;19934;-68
2021/08/23 11:09:12;;;;;;;;;;;21.80;83.50;;;19.52;85.33;101225.38;5017947;28;19936;-68
2021/08/23 11:11:40;;;;;;;;;;;21.80;83.20;;;19.52;85.14;101239.19;5017696;28;19929;-69